createdAt,value
2018-05-17T00:02:07.455Z,99.90
2018-05-17T00:04:36.730Z,99.90
2018-05-17T00:07:06.822Z,99.90
2018-05-17T00:09:36.081Z,99.90
2018-05-17T00:12:05.357Z,99.90
2018-05-17T00:14:35.528Z,99.90
2018-05-17T00:17:04.831Z,99.90
2018-05-17T00:19:34.208Z,99.90
2018-05-17T00:22:03.582Z,99.90
2018-05-17T00:24:33.610Z,99.90
2018-05-17T00:27:02.991Z,99.90
2018-05-17T00:29:33.022Z,99.90
2018-05-17T00:32:03.102Z,99.90
2018-05-17T00:34:32.379Z,99.90
2018-05-17T00:37:01.712Z,99.90
2018-05-17T00:39:30.999Z,99.90
2018-05-17T00:42:00.342Z,99.90
2018-05-17T00:44:30.432Z,99.90
2018-05-17T00:46:59.727Z,99.90
2018-05-17T00:49:28.990Z,99.90
2018-05-17T00:51:58.280Z,99.90
2018-05-17T00:54:27.646Z,99.90
2018-05-17T00:56:56.976Z,99.90
2018-05-17T00:59:26.358Z,99.90
2018-05-17T01:01:56.398Z,99.90
2018-05-17T01:04:25.674Z,99.90
2018-05-17T01:06:55.770Z,99.90
2018-05-17T01:09:25.124Z,99.90
2018-05-17T01:11:54.522Z,99.90
2018-05-17T01:14:24.574Z,99.90
2018-05-17T01:16:53.848Z,99.90
2018-05-17T01:19:23.113Z,99.90
2018-05-17T01:21:53.183Z,99.90
2018-05-17T01:24:22.476Z,99.90
2018-05-17T01:26:51.791Z,99.90
2018-05-17T01:29:21.079Z,99.90
2018-05-17T01:31:50.379Z,99.90
2018-05-17T01:34:19.668Z,99.90
2018-05-17T01:37:06.838Z,99.90
2018-05-17T01:39:36.115Z,99.90
2018-05-17T01:42:05.397Z,99.90
2018-05-17T01:44:34.669Z,99.90
2018-05-17T01:47:03.944Z,99.90
2018-05-17T01:49:33.315Z,99.90
2018-05-17T01:52:02.574Z,99.90
2018-05-17T01:54:31.854Z,99.90
2018-05-17T01:57:01.909Z,99.90
2018-05-17T01:59:31.174Z,99.90
2018-05-17T02:02:00.484Z,99.90
2018-05-17T02:04:29.751Z,99.90
2018-05-17T02:06:59.843Z,99.90
2018-05-17T02:09:29.157Z,99.90
2018-05-17T02:11:58.561Z,99.90
2018-05-17T02:14:27.825Z,99.90
2018-05-17T02:16:57.096Z,99.90
2018-05-17T02:19:27.163Z,99.90
2018-05-17T02:21:56.548Z,99.90
2018-05-17T02:24:25.827Z,99.90
2018-05-17T02:26:55.116Z,99.90
2018-05-17T02:29:25.154Z,99.90
2018-05-17T02:31:54.421Z,99.90
2018-05-17T02:34:23.831Z,99.90
2018-05-17T02:36:53.867Z,99.90
2018-05-17T02:39:23.903Z,99.90
2018-05-17T02:41:53.286Z,99.90
2018-05-17T02:44:22.560Z,99.90
2018-05-17T02:46:51.887Z,99.90
2018-05-17T02:49:21.929Z,99.90
2018-05-17T02:51:51.278Z,99.90
2018-05-17T02:54:20.558Z,99.90
2018-05-17T02:56:49.894Z,99.90
2018-05-17T02:59:20.004Z,99.90
2018-05-17T03:01:49.332Z,99.90
2018-05-17T03:04:19.394Z,99.90
2018-05-17T03:06:48.766Z,99.90
2018-05-17T03:09:18.066Z,99.90
2018-05-17T03:11:47.408Z,99.90
2018-05-17T03:14:16.682Z,99.90
2018-05-17T03:16:45.966Z,99.90
2018-05-17T03:19:15.490Z,99.90
2018-05-17T03:21:44.794Z,99.90
2018-05-17T03:24:14.086Z,99.90
2018-05-17T03:26:43.416Z,99.90
2018-05-17T03:29:12.684Z,99.90
2018-05-17T03:31:42.032Z,99.90
2018-05-17T03:34:11.332Z,99.90
2018-05-17T03:36:40.679Z,99.90
2018-05-17T03:39:09.939Z,99.90
2018-05-17T03:41:40.028Z,99.90
2018-05-17T03:44:09.466Z,99.90
2018-05-17T03:46:39.880Z,99.90
2018-05-17T03:49:09.159Z,99.90
2018-05-17T03:51:38.477Z,99.90
2018-05-17T03:54:07.737Z,99.90
2018-05-17T03:56:37.029Z,99.90
2018-05-17T03:59:06.341Z,99.90
2018-05-17T04:01:53.635Z,99.90
2018-05-17T04:04:41.545Z,99.90
2018-05-17T04:07:10.794Z,99.90
2018-05-17T04:09:40.183Z,99.90
2018-05-17T04:12:09.444Z,99.90
2018-05-17T04:14:38.841Z,99.90
2018-05-17T04:17:08.140Z,99.90
2018-05-17T04:19:37.408Z,99.90
2018-05-17T04:22:06.744Z,99.90
2018-05-17T04:24:36.086Z,99.90
2018-05-17T04:27:06.105Z,99.90
2018-05-17T04:29:35.436Z,99.90
2018-05-17T04:32:04.686Z,99.90
2018-05-17T04:34:34.707Z,99.90
2018-05-17T04:37:04.712Z,99.90
2018-05-17T04:39:34.336Z,99.90
2018-05-17T04:42:04.367Z,99.90
2018-05-17T04:44:33.663Z,99.90
2018-05-17T04:47:02.963Z,99.90
2018-05-17T04:49:32.969Z,99.90
2018-05-17T04:52:03.030Z,99.90
2018-05-17T04:54:32.331Z,99.90
2018-05-17T04:57:01.687Z,99.90
2018-05-17T04:59:31.752Z,99.90
2018-05-17T05:02:01.032Z,99.90
2018-05-17T05:04:30.440Z,99.90
2018-05-17T05:06:59.956Z,99.90
2018-05-17T05:09:29.341Z,99.90
2018-05-17T05:11:58.530Z,99.90
2018-05-17T05:14:27.855Z,99.90
2018-05-17T05:16:57.146Z,99.90
2018-05-17T05:19:26.512Z,99.90
2018-05-17T05:21:56.511Z,99.90
2018-05-17T05:24:26.539Z,99.90
2018-05-17T05:26:55.881Z,99.90
2018-05-17T05:29:25.203Z,99.90
2018-05-17T05:31:56.086Z,99.90
2018-05-17T05:34:26.302Z,99.90
2018-05-17T05:36:55.711Z,99.90
2018-05-17T05:39:25.822Z,99.90
2018-05-17T05:41:55.114Z,99.90
2018-05-17T05:44:24.546Z,99.90
2018-05-17T05:46:54.622Z,99.90
2018-05-17T05:49:24.037Z,99.90
2018-05-17T05:51:54.033Z,99.90
2018-05-17T05:54:23.654Z,99.90
2018-05-17T05:56:52.947Z,99.90
2018-05-17T05:59:22.223Z,99.90
2018-05-17T06:01:51.497Z,99.90
2018-05-17T06:04:20.769Z,99.90
2018-05-17T06:06:51.133Z,99.40
2018-05-17T06:09:20.423Z,99.40
2018-05-17T06:11:49.685Z,99.70
2018-05-17T06:14:18.965Z,99.30
2018-05-17T06:16:48.244Z,99.30
2018-05-17T06:19:17.499Z,98.90
2018-05-17T06:21:47.541Z,98.50
2018-05-17T06:24:16.791Z,98.50
2018-05-17T06:26:46.065Z,98.20
2018-05-17T06:29:15.336Z,97.90
2018-05-17T06:31:44.643Z,97.60
2018-05-17T06:34:13.960Z,98.20
2018-05-17T06:36:43.272Z,98.00
2018-05-17T06:39:12.572Z,98.30
2018-05-17T06:41:41.844Z,98.50
2018-05-17T06:44:11.177Z,99.70
2018-05-17T06:46:40.446Z,99.60
2018-05-17T06:49:09.791Z,99.30
2018-05-17T06:51:39.101Z,99.00
2018-05-17T06:54:08.349Z,98.70
2018-05-17T06:56:37.631Z,98.60
2018-05-17T06:59:07.658Z,98.30
2018-05-17T07:01:36.953Z,98.30
2018-05-17T07:04:07.063Z,98.00
2018-05-17T07:06:36.287Z,98.00
2018-05-17T07:09:06.447Z,97.90
2018-05-17T07:11:35.737Z,97.80
2018-05-17T07:14:05.011Z,96.40
2018-05-17T07:16:34.307Z,95.40
2018-05-17T07:19:03.681Z,94.30
2018-05-17T07:21:32.965Z,93.30
2018-05-17T07:24:03.020Z,87.00
2018-05-17T07:26:33.091Z,77.50
2018-05-17T07:29:02.388Z,77.50
2018-05-17T07:31:31.627Z,70.60
2018-05-17T07:34:01.676Z,62.70
2018-05-17T07:36:30.946Z,62.00
2018-05-17T07:39:00.258Z,58.60
2018-05-17T07:41:30.423Z,59.00
2018-05-17T07:43:59.693Z,58.90
2018-05-17T07:46:29.021Z,59.50
2018-05-17T07:48:58.290Z,59.20
2018-05-17T07:51:27.554Z,54.80
2018-05-17T07:53:57.688Z,53.80
2018-05-17T07:56:27.723Z,54.10
2018-05-17T07:58:56.982Z,54.00
2018-05-17T08:01:26.281Z,49.90
2018-05-17T08:03:55.587Z,46.40
2018-05-17T08:06:24.860Z,46.40
2018-05-17T08:08:54.153Z,50.00
2018-05-17T08:11:23.397Z,47.60
2018-05-17T08:13:53.444Z,46.40
2018-05-17T08:16:22.757Z,46.30
2018-05-17T08:18:52.094Z,46.70
2018-05-17T08:21:21.361Z,46.50
2018-05-17T08:23:50.627Z,43.80
2018-05-17T08:26:19.903Z,42.30
2018-05-17T08:28:49.167Z,43.90
2018-05-17T08:31:19.060Z,44.50
2018-05-17T08:33:48.339Z,45.50
2018-05-17T08:36:18.513Z,49.80
2018-05-17T08:38:47.635Z,50.00
2018-05-17T08:41:16.958Z,49.90
2018-05-17T08:43:46.982Z,52.90
2018-05-17T08:46:17.005Z,53.20
2018-05-17T08:48:46.265Z,53.20
2018-05-17T08:51:16.371Z,53.80
2018-05-17T08:53:45.630Z,54.00
2018-05-17T08:56:14.917Z,54.80
2018-05-17T08:58:45.018Z,53.90
2018-05-17T09:01:15.089Z,52.90
2018-05-17T09:03:44.374Z,52.80
2018-05-17T09:06:13.726Z,52.70
2018-05-17T09:08:42.944Z,52.50
2018-05-17T09:11:12.987Z,52.90
2018-05-17T09:13:42.248Z,52.90
2018-05-17T09:16:11.685Z,51.20
2018-05-17T09:18:40.916Z,53.30
2018-05-17T09:21:10.987Z,56.40
2018-05-17T09:23:40.304Z,55.80
2018-05-17T09:26:09.617Z,53.60
2018-05-17T09:28:38.863Z,53.00
2018-05-17T09:31:08.225Z,54.20
2018-05-17T09:33:37.638Z,54.10
2018-05-17T09:36:06.912Z,54.50
2018-05-17T09:38:36.235Z,55.80
2018-05-17T09:41:05.565Z,55.10
2018-05-17T09:43:34.864Z,56.00
2018-05-17T09:46:04.093Z,57.60
2018-05-17T09:48:33.378Z,57.00
2018-05-17T09:51:03.419Z,52.00
2018-05-17T09:53:32.695Z,52.60
2018-05-17T09:56:02.735Z,48.40
2018-05-17T09:58:32.752Z,45.60
2018-05-17T10:01:02.786Z,46.10
2018-05-17T10:03:32.076Z,46.00
2018-05-17T10:06:01.352Z,42.70
2018-05-17T10:08:31.414Z,45.40
2018-05-17T10:11:00.707Z,45.40
2018-05-17T10:13:29.985Z,46.80
2018-05-17T10:16:00.031Z,44.10
2018-05-17T10:18:29.286Z,44.00
2018-05-17T10:20:59.330Z,43.80
2018-05-17T10:23:30.253Z,43.80
2018-05-17T10:26:00.240Z,45.70
2018-05-17T10:28:29.590Z,45.70
2018-05-17T10:30:58.860Z,44.60
2018-05-17T10:33:28.914Z,44.30
2018-05-17T10:35:58.925Z,44.60
2018-05-17T10:38:28.358Z,44.50
2018-05-17T10:40:57.610Z,42.90
2018-05-17T10:43:26.890Z,45.20
2018-05-17T10:45:56.214Z,47.40
2018-05-17T10:48:26.250Z,50.10
2018-05-17T10:50:55.524Z,50.00
2018-05-17T10:53:25.552Z,49.70
2018-05-17T10:55:54.831Z,49.60
2018-05-17T10:58:24.120Z,51.60
2018-05-17T11:00:53.368Z,48.90
2018-05-17T11:03:22.656Z,47.00
2018-05-17T11:05:52.789Z,46.20
2018-05-17T11:08:22.109Z,46.10
2018-05-17T11:10:51.448Z,49.60
2018-05-17T11:13:20.750Z,48.80
2018-05-17T11:15:50.028Z,50.80
2018-05-17T11:18:19.297Z,50.70
2018-05-17T11:20:48.560Z,49.80
2018-05-17T11:23:18.597Z,49.20
2018-05-17T11:25:47.885Z,49.30
2018-05-17T11:28:18.617Z,49.60
2018-05-17T11:30:48.658Z,50.80
2018-05-17T11:33:17.939Z,50.70
2018-05-17T11:35:47.955Z,53.80
2018-05-17T11:38:17.973Z,52.80
2018-05-17T11:40:47.232Z,52.90
2018-05-17T11:43:18.058Z,51.30
2018-05-17T11:45:47.371Z,51.30
2018-05-17T11:48:16.685Z,52.50
2018-05-17T11:50:45.896Z,53.20
2018-05-17T11:53:16.649Z,53.70
2018-05-17T11:55:45.930Z,53.60
2018-05-17T11:58:15.956Z,54.00
2018-05-17T12:00:46.028Z,53.10
2018-05-17T12:03:15.294Z,53.10
2018-05-17T12:05:44.683Z,55.10
2018-05-17T12:08:14.726Z,55.70
2018-05-17T12:10:44.002Z,55.70
2018-05-17T12:13:14.060Z,55.20
2018-05-17T12:15:43.350Z,55.10
2018-05-17T12:18:12.646Z,55.40
2018-05-17T12:20:42.408Z,55.70
2018-05-17T12:23:11.715Z,55.60
2018-05-17T12:25:41.753Z,56.20
2018-05-17T12:28:11.029Z,56.10
2018-05-17T12:30:41.075Z,58.20
2018-05-17T12:33:10.354Z,58.00
2018-05-17T12:35:39.640Z,56.60
2018-05-17T12:38:09.723Z,56.40
2018-05-17T12:40:38.984Z,56.30
2018-05-17T12:43:09.037Z,56.60
2018-05-17T12:45:38.310Z,56.60
2018-05-17T12:48:11.281Z,56.40
2018-05-17T12:50:40.557Z,57.40
2018-05-17T12:53:11.344Z,55.00
2018-05-17T12:55:40.629Z,55.00
2018-05-17T12:58:11.021Z,54.80
2018-05-17T13:00:40.273Z,54.80
2018-05-17T13:03:09.557Z,55.10
2018-05-17T13:05:38.814Z,56.10
2018-05-17T13:08:08.953Z,56.30
2018-05-17T13:10:38.236Z,56.30
2018-05-17T13:13:07.595Z,56.70
2018-05-17T13:15:36.734Z,58.10
2018-05-17T13:18:06.036Z,58.00
2018-05-17T13:20:39.197Z,57.40
2018-05-17T13:23:08.996Z,58.10
2018-05-17T13:25:38.281Z,59.40
2018-05-17T13:28:07.570Z,59.60
2018-05-17T13:30:36.895Z,57.80
2018-05-17T13:33:06.195Z,58.40
2018-05-17T13:35:35.526Z,58.30
2018-05-17T13:38:05.201Z,60.20
2018-05-17T13:40:34.497Z,61.10
2018-05-17T13:43:03.806Z,60.20
2018-05-17T13:45:33.053Z,63.20
2018-05-17T13:48:02.381Z,61.60
2018-05-17T13:50:31.675Z,61.00
2018-05-17T13:53:01.003Z,60.80
2018-05-17T13:55:30.280Z,63.10
2018-05-17T13:58:00.325Z,59.20
2018-05-17T14:00:29.609Z,59.20
2018-05-17T14:03:07.108Z,59.10
2018-05-17T14:05:36.387Z,61.70
2018-05-17T14:08:06.422Z,59.60
2018-05-17T14:10:35.766Z,59.60
2018-05-17T14:13:05.026Z,58.60
2018-05-17T14:15:35.077Z,57.70
2018-05-17T14:18:05.037Z,58.20
2018-05-17T14:20:34.373Z,58.20
2018-05-17T14:23:03.641Z,57.50
2018-05-17T14:25:33.061Z,56.70
2018-05-17T14:28:03.084Z,58.80
2018-05-17T14:30:33.283Z,58.80
2018-05-17T14:33:03.325Z,53.60
2018-05-17T14:35:33.539Z,57.20
2018-05-17T14:38:02.815Z,57.20
2018-05-17T14:40:32.844Z,57.00
2018-05-17T14:43:02.885Z,54.50
2018-05-17T14:45:32.164Z,54.40
2018-05-17T14:48:02.217Z,54.20
2018-05-17T14:50:31.497Z,54.20
2018-05-17T14:53:00.774Z,53.80
2018-05-17T14:55:30.827Z,54.80
2018-05-17T14:58:00.092Z,54.80
2018-05-17T15:00:30.152Z,55.00
2018-05-17T15:02:59.419Z,55.00
2018-05-17T15:05:29.444Z,52.70
2018-05-17T15:07:59.612Z,52.60
2018-05-17T15:10:29.179Z,51.10
2018-05-17T15:12:58.638Z,49.60
2018-05-17T15:15:29.727Z,48.80
2018-05-17T15:17:59.035Z,48.80
2018-05-17T15:20:28.329Z,49.40
2018-05-17T15:22:57.604Z,49.00
2018-05-17T15:25:27.644Z,50.50
2018-05-17T15:27:56.916Z,50.40
2018-05-17T15:30:27.030Z,51.30
2018-05-17T15:32:57.077Z,51.40
2018-05-17T15:35:26.333Z,51.40
2018-05-17T15:37:55.609Z,52.40
2018-05-17T15:40:24.967Z,52.90
2018-05-17T15:42:55.020Z,50.90
2018-05-17T15:45:24.553Z,50.90
2018-05-17T15:47:53.823Z,50.40
2018-05-17T15:50:23.097Z,50.40
2018-05-17T15:52:53.346Z,50.40
2018-05-17T15:55:22.612Z,50.50
2018-05-17T15:57:52.642Z,52.30
2018-05-17T16:00:21.917Z,52.30
2018-05-17T16:02:51.980Z,51.60
2018-05-17T16:05:21.289Z,51.60
2018-05-17T16:07:50.562Z,51.40
2018-05-17T16:10:19.856Z,51.10
2018-05-17T16:12:49.196Z,51.70
2018-05-17T16:15:19.352Z,53.40
2018-05-17T16:17:48.539Z,53.30
2018-05-17T16:20:18.659Z,53.40
2018-05-17T16:22:49.551Z,53.80
2018-05-17T16:25:18.852Z,53.80
2018-05-17T16:27:48.132Z,54.50
2018-05-17T16:30:17.468Z,54.60
2018-05-17T16:32:46.750Z,54.60
2018-05-17T16:35:15.995Z,53.90
2018-05-17T16:37:47.381Z,54.80
2018-05-17T16:40:16.674Z,54.80
2018-05-17T16:42:46.782Z,55.30
2018-05-17T16:45:15.975Z,55.30
2018-05-17T16:47:45.249Z,55.40
2018-05-17T16:50:14.531Z,55.10
2018-05-17T16:52:43.857Z,55.10
2018-05-17T16:55:13.109Z,56.40
2018-05-17T16:57:42.418Z,55.00
2018-05-17T17:00:11.733Z,56.00
2018-05-17T17:02:41.034Z,56.20
2018-05-17T17:05:11.848Z,56.80
2018-05-17T17:07:41.147Z,56.80
2018-05-17T17:10:10.470Z,56.90
2018-05-17T17:12:39.791Z,57.00
2018-05-17T17:15:09.021Z,57.50
2018-05-17T17:17:39.076Z,57.70
2018-05-17T17:20:08.491Z,57.60
2018-05-17T17:22:37.767Z,58.70
2018-05-17T17:25:07.041Z,59.20
2018-05-17T17:27:37.084Z,58.70
2018-05-17T17:30:06.366Z,58.70
2018-05-17T17:32:36.416Z,60.10
2018-05-17T17:35:05.697Z,59.60
2018-05-17T17:37:34.977Z,59.40
2018-05-17T17:40:05.008Z,60.10
2018-05-17T17:42:35.730Z,60.40
2018-05-17T17:45:05.818Z,61.10
2018-05-17T17:47:35.128Z,61.10
2018-05-17T17:50:05.165Z,61.60
2018-05-17T17:52:35.231Z,61.10
2018-05-17T17:55:04.526Z,61.00
2018-05-17T17:57:33.838Z,61.60
2018-05-17T18:00:03.217Z,61.90
2018-05-17T18:02:32.517Z,61.80
2018-05-17T18:05:01.827Z,61.80
2018-05-17T18:07:31.057Z,62.20
2018-05-17T18:10:00.318Z,62.60
2018-05-17T18:12:29.670Z,62.50
2018-05-17T18:14:58.937Z,62.70
2018-05-17T18:17:28.257Z,63.80
2018-05-17T18:19:57.511Z,63.60
2018-05-17T18:22:27.662Z,63.80
2018-05-17T18:24:57.027Z,63.80
2018-05-17T18:27:26.294Z,64.60
2018-05-17T18:29:55.629Z,64.30
2018-05-17T18:32:24.919Z,64.50
2018-05-17T18:34:55.578Z,65.70
2018-05-17T18:37:24.880Z,65.60
2018-05-17T18:39:54.149Z,65.50
2018-05-17T18:42:24.183Z,66.60
2018-05-17T18:44:53.470Z,66.50
2018-05-17T18:47:23.486Z,68.10
2018-05-17T18:49:53.547Z,67.40
2018-05-17T18:52:22.909Z,67.40
2018-05-17T18:54:52.433Z,67.50
2018-05-17T18:57:21.817Z,68.50
2018-05-17T18:59:52.085Z,68.50
2018-05-17T19:02:21.464Z,68.50
2018-05-17T19:04:50.722Z,68.70
2018-05-17T19:07:20.000Z,68.30
2018-05-17T19:09:49.229Z,68.60
2018-05-17T19:12:18.550Z,68.70
2018-05-17T19:14:48.599Z,68.10
2018-05-17T19:17:17.902Z,68.10
2018-05-17T19:19:47.461Z,68.50
2018-05-17T19:22:17.521Z,67.70
2018-05-17T19:24:46.802Z,67.60
2018-05-17T19:27:16.137Z,68.90
2018-05-17T19:29:48.938Z,68.30
2018-05-17T19:32:18.230Z,68.10
2018-05-17T19:34:47.905Z,68.40
2018-05-17T19:37:17.952Z,68.60
2018-05-17T19:39:47.180Z,68.20
2018-05-17T19:42:16.771Z,69.00
2018-05-17T19:44:46.057Z,68.60
2018-05-17T19:47:16.086Z,68.60
2018-05-17T19:49:45.369Z,69.00
2018-05-17T19:52:14.921Z,68.60
2018-05-17T19:54:44.280Z,69.00
2018-05-17T19:57:13.635Z,69.60
2018-05-17T19:59:42.919Z,69.70
2018-05-17T20:02:13.055Z,70.10
2018-05-17T20:04:43.081Z,70.10
2018-05-17T20:07:12.349Z,69.90
2018-05-17T20:09:42.396Z,69.90
2018-05-17T20:12:11.673Z,69.80
2018-05-17T20:14:41.733Z,70.00
2018-05-17T20:17:11.090Z,70.60
2018-05-17T20:19:40.399Z,70.50
2018-05-17T20:22:10.451Z,70.70
2018-05-17T20:24:40.081Z,70.70
2018-05-17T20:27:09.896Z,71.00
2018-05-17T20:29:39.217Z,70.30
2018-05-17T20:32:08.466Z,70.70
2018-05-17T20:34:37.836Z,70.40
2018-05-17T20:37:07.862Z,70.50
2018-05-17T20:39:37.271Z,70.40
2018-05-17T20:42:07.329Z,71.00
2018-05-17T20:44:36.888Z,71.10
2018-05-17T20:47:06.212Z,70.60
2018-05-17T20:49:36.034Z,70.80
2018-05-17T20:52:05.221Z,70.90
2018-05-17T20:54:34.462Z,71.00
2018-05-17T20:57:03.863Z,70.70
2018-05-17T20:59:35.784Z,71.30
2018-05-17T21:02:05.048Z,71.40
2018-05-17T21:04:35.111Z,71.60
2018-05-17T21:07:04.418Z,71.60
2018-05-17T21:09:33.750Z,71.10
2018-05-17T21:12:03.037Z,71.40
2018-05-17T21:14:32.356Z,71.60
2018-05-17T21:17:01.639Z,72.00
2018-05-17T21:19:30.909Z,71.60
2018-05-17T21:22:00.223Z,72.30
2018-05-17T21:24:29.503Z,72.30
2018-05-17T21:27:03.113Z,72.80
2018-05-17T21:29:32.609Z,72.90
2018-05-17T21:32:02.044Z,73.20
2018-05-17T21:34:32.127Z,74.10
2018-05-17T21:37:02.161Z,74.10
2018-05-17T21:39:31.559Z,74.10
2018-05-17T21:42:00.761Z,74.50
2018-05-17T21:44:30.026Z,74.70
2018-05-17T21:47:00.096Z,75.20
2018-05-17T21:49:29.374Z,75.10
2018-05-17T21:51:58.706Z,75.90
2018-05-17T21:54:28.031Z,76.10
2018-05-17T21:56:57.346Z,75.90
2018-05-17T21:59:27.403Z,76.70
2018-05-17T22:01:56.692Z,76.70
2018-05-17T22:04:25.993Z,77.50
2018-05-17T22:06:56.195Z,77.70
2018-05-17T22:09:26.280Z,78.40
2018-05-17T22:11:55.558Z,78.40
2018-05-17T22:14:24.825Z,79.00
2018-05-17T22:16:54.202Z,78.90
2018-05-17T22:19:24.258Z,79.90
2018-05-17T22:21:53.530Z,79.80
2018-05-17T22:24:22.831Z,80.00
2018-05-17T22:26:52.879Z,81.60
2018-05-17T22:29:22.270Z,81.50
2018-05-17T22:31:51.794Z,82.00
2018-05-17T22:34:21.159Z,82.30
2018-05-17T22:36:50.607Z,82.60
2018-05-17T22:39:19.913Z,83.20
2018-05-17T22:41:49.208Z,83.30
2018-05-17T22:44:18.437Z,83.80
2018-05-17T22:46:47.792Z,84.20
2018-05-17T22:49:17.916Z,84.80
2018-05-17T22:51:47.306Z,85.30
2018-05-17T22:54:16.539Z,86.00
2018-05-17T22:57:03.387Z,86.60
2018-05-17T22:59:33.510Z,87.90
2018-05-17T23:02:03.529Z,88.30
2018-05-17T23:04:33.589Z,89.10
2018-05-17T23:07:02.857Z,89.00
2018-05-17T23:09:32.725Z,89.30
2018-05-17T23:12:02.036Z,89.90
2018-05-17T23:14:31.309Z,90.40
2018-05-17T23:17:00.595Z,90.30
2018-05-17T23:19:30.917Z,90.50
2018-05-17T23:22:00.203Z,90.90
2018-05-17T23:24:30.256Z,91.20
2018-05-17T23:26:59.548Z,91.20
2018-05-17T23:29:28.830Z,91.50
2018-05-17T23:31:58.107Z,91.80
2018-05-17T23:34:28.221Z,92.30
2018-05-17T23:36:58.551Z,92.40
2018-05-17T23:39:28.604Z,92.50
2018-05-17T23:41:57.889Z,92.50
2018-05-17T23:44:27.183Z,92.90
2018-05-17T23:46:56.523Z,92.80
2018-05-17T23:49:25.808Z,93.10
2018-05-17T23:51:55.243Z,93.40
2018-05-17T23:54:24.504Z,93.60
2018-05-17T23:56:53.774Z,93.80
2018-05-17T23:59:23.983Z,94.20
